This is the latest recevied weather packets stored in our database for station/object SP9KB-13. If no packets are shown the sender has not sent any weather packets the latest 10 day(s).
| Time | Temp. | Humidity | Pressure | Rain* | Wind** | Luminosity | Snow |
|---|---|---|---|---|---|---|---|
| 1778099109 | 13.89° C | 71% | 990.8 hPa | 0 mm | - | - | - |
| 1778098808 | 14.44° C | 69% | 990.9 hPa | 0 mm | - | - | - |
| 1778098508 | 15° C | 68% | 990.8 hPa | 0 mm | - | - | - |
| 1778098207 | 15° C | 65% | 990.7 hPa | 0 mm | - | - | - |
| 1778097907 | 14.44° C | 68% | 990.8 hPa | 0 mm | - | - | - |
| 1778097606 | 15° C | 67% | 990.9 hPa | 0 mm | - | - | - |
| 1778097305 | 15.56° C | 66% | 990.6 hPa | 0 mm | - | - | - |
| 1778097004 | 15.56° C | 65% | 990.7 hPa | 0 mm | - | - | - |
| 1778096703 | 15° C | 66% | 990.7 hPa | 0 mm | - | - | - |
| 1778096403 | 15.56° C | 65% | 990.9 hPa | 0 mm | - | - | - |
| 1778096102 | 16.11° C | 63% | 990.7 hPa | 0 mm | - | - | - |
| 1778095802 | 16.67° C | 61% | 990.8 hPa | 0 mm | - | - | - |
| 1778095501 | 16.67° C | 60% | 990.8 hPa | 0 mm | - | - | - |
| 1778095200 | 16.67° C | 60% | 990.6 hPa | 0 mm | - | - | - |
| 1778094900 | 17.22° C | 59% | 990.5 hPa | 0 mm | - | - | - |
| 1778094599 | 17.22° C | 59% | 990.6 hPa | 0 mm | - | - | - |
| 1778094298 | 17.22° C | 58% | 990.6 hPa | 0 mm | - | - | - |
| 1778093998 | 17.22° C | 58% | 990.6 hPa | 0 mm | - | - | - |
| 1778093697 | 17.78° C | 57% | 990.8 hPa | 0 mm | - | - | - |
| 1778093397 | 18.33° C | 55% | 990.6 hPa | 0 mm | - | - | - |
| 1778093096 | 18.33° C | 54% | 990.8 hPa | 0 mm | - | - | - |
| 1778092796 | 18.33° C | 54% | 990.6 hPa | 0 mm | - | - | - |
| 1778092495 | 18.33° C | 54% | 990.6 hPa | 0 mm | - | - | - |
| 1778092194 | 18.33° C | 54% | 990.5 hPa | 0 mm | - | - | - |
| 1778091894 | 18.33° C | 54% | 990.6 hPa | 0 mm | - | - | - |
* Rain latest hour (hover to see other rain measurements)
** Current wind speed in m/s (hover to see current wind gust speed)